sensor_id;sensor_type;location;lat;lon;timestamp;P1;durP1;ratioP1;P2;durP2;ratioP2
57889;SDS011;43707;50.184;18.966;2024-01-15T00:01:47;0.20;;;0.20;;
57889;SDS011;43707;50.184;18.966;2024-01-15T00:04:13;0.20;;;0.20;;
57889;SDS011;43707;50.184;18.966;2024-01-15T00:06:39;0.60;;;0.40;;
57889;SDS011;43707;50.184;18.966;2024-01-15T00:09:04;0.40;;;0.40;;
57889;SDS011;43707;50.184;18.966;2024-01-15T00:11:32;0.40;;;0.30;;
57889;SDS011;43707;50.184;18.966;2024-01-15T00:13:58;0.30;;;0.30;;
57889;SDS011;43707;50.184;18.966;2024-01-15T00:16:23;0.30;;;0.30;;
57889;SDS011;43707;50.184;18.966;2024-01-15T00:18:49;0.30;;;0.30;;
57889;SDS011;43707;50.184;18.966;2024-01-15T00:21:14;1.80;;;0.30;;
57889;SDS011;43707;50.184;18.966;2024-01-15T00:23:43;0.20;;;0.20;;
57889;SDS011;43707;50.184;18.966;2024-01-15T00:26:11;0.30;;;0.20;;
57889;SDS011;43707;50.184;18.966;2024-01-15T00:28:37;0.30;;;0.30;;
57889;SDS011;43707;50.184;18.966;2024-01-15T00:31:04;0.20;;;0.20;;
57889;SDS011;43707;50.184;18.966;2024-01-15T00:33:30;0.40;;;0.20;;
57889;SDS011;43707;50.184;18.966;2024-01-15T00:35:55;0.20;;;0.20;;
57889;SDS011;43707;50.184;18.966;2024-01-15T00:38:21;0.20;;;0.20;;
57889;SDS011;43707;50.184;18.966;2024-01-15T00:40:46;0.30;;;0.30;;
57889;SDS011;43707;50.184;18.966;2024-01-15T00:43:12;0.20;;;0.20;;
57889;SDS011;43707;50.184;18.966;2024-01-15T00:45:37;0.30;;;0.20;;
57889;SDS011;43707;50.184;18.966;2024-01-15T00:48:03;0.10;;;0.10;;
57889;SDS011;43707;50.184;18.966;2024-01-15T00:50:29;0.20;;;0.20;;
57889;SDS011;43707;50.184;18.966;2024-01-15T00:52:55;0.50;;;0.30;;
57889;SDS011;43707;50.184;18.966;2024-01-15T00:55:20;0.50;;;0.20;;
57889;SDS011;43707;50.184;18.966;2024-01-15T00:57:46;0.10;;;0.10;;
57889;SDS011;43707;50.184;18.966;2024-01-15T01:00:12;0.30;;;0.30;;
57889;SDS011;43707;50.184;18.966;2024-01-15T01:02:38;0.20;;;0.20;;
57889;SDS011;43707;50.184;18.966;2024-01-15T01:05:03;0.30;;;0.30;;
57889;SDS011;43707;50.184;18.966;2024-01-15T01:07:29;0.20;;;0.20;;
57889;SDS011;43707;50.184;18.966;2024-01-15T01:09:55;0.60;;;0.30;;
57889;SDS011;43707;50.184;18.966;2024-01-15T01:12:20;1.20;;;0.40;;
57889;SDS011;43707;50.184;18.966;2024-01-15T01:14:46;0.20;;;0.20;;
57889;SDS011;43707;50.184;18.966;2024-01-15T01:17:12;0.10;;;0.10;;
57889;SDS011;43707;50.184;18.966;2024-01-15T01:19:37;0.50;;;0.30;;
57889;SDS011;43707;50.184;18.966;2024-01-15T01:22:03;0.30;;;0.20;;
57889;SDS011;43707;50.184;18.966;2024-01-15T01:24:29;0.30;;;0.30;;
57889;SDS011;43707;50.184;18.966;2024-01-15T01:26:54;0.90;;;0.30;;
57889;SDS011;43707;50.184;18.966;2024-01-15T01:29:20;0.30;;;0.20;;
57889;SDS011;43707;50.184;18.966;2024-01-15T01:31:45;0.30;;;0.20;;
57889;SDS011;43707;50.184;18.966;2024-01-15T01:34:15;0.40;;;0.40;;
57889;SDS011;43707;50.184;18.966;2024-01-15T01:36:41;1.50;;;0.10;;
57889;SDS011;43707;50.184;18.966;2024-01-15T01:39:10;0.20;;;0.20;;
57889;SDS011;43707;50.184;18.966;2024-01-15T01:41:35;0.20;;;0.20;;
57889;SDS011;43707;50.184;18.966;2024-01-15T01:44:01;0.80;;;0.30;;
57889;SDS011;43707;50.184;18.966;2024-01-15T01:46:27;0.70;;;0.30;;
57889;SDS011;43707;50.184;18.966;2024-01-15T01:48:53;0.40;;;0.20;;
57889;SDS011;43707;50.184;18.966;2024-01-15T01:51:20;0.20;;;0.20;;
57889;SDS011;43707;50.184;18.966;2024-01-15T01:53:47;0.10;;;0.10;;
57889;SDS011;43707;50.184;18.966;2024-01-15T01:56:13;0.10;;;0.10;;
57889;SDS011;43707;50.184;18.966;2024-01-15T01:58:39;0.20;;;0.20;;
57889;SDS011;43707;50.184;18.966;2024-01-15T02:01:04;0.60;;;0.30;;
57889;SDS011;43707;50.184;18.966;2024-01-15T02:03:30;0.30;;;0.20;;
57889;SDS011;43707;50.184;18.966;2024-01-15T02:05:56;0.30;;;0.20;;
57889;SDS011;43707;50.184;18.966;2024-01-15T02:08:22;0.30;;;0.30;;
57889;SDS011;43707;50.184;18.966;2024-01-15T02:10:48;1.10;;;0.20;;
57889;SDS011;43707;50.184;18.966;2024-01-15T02:13:13;0.60;;;0.30;;
57889;SDS011;43707;50.184;18.966;2024-01-15T02:15:39;1.10;;;0.40;;
57889;SDS011;43707;50.184;18.966;2024-01-15T02:18:06;3.40;;;0.70;;
57889;SDS011;43707;50.184;18.966;2024-01-15T02:20:34;2.10;;;0.50;;
57889;SDS011;43707;50.184;18.966;2024-01-15T02:23:13;0.90;;;0.40;;
57889;SDS011;43707;50.184;18.966;2024-01-15T02:25:43;0.30;;;0.20;;
57889;SDS011;43707;50.184;18.966;2024-01-15T02:28:11;0.20;;;0.20;;
57889;SDS011;43707;50.184;18.966;2024-01-15T02:30:42;0.20;;;0.10;;
57889;SDS011;43707;50.184;18.966;2024-01-15T02:33:08;1.50;;;0.10;;
57889;SDS011;43707;50.184;18.966;2024-01-15T02:35:35;0.40;;;0.20;;
57889;SDS011;43707;50.184;18.966;2024-01-15T02:38:04;0.20;;;0.20;;
57889;SDS011;43707;50.184;18.966;2024-01-15T02:40:30;0.30;;;0.20;;
57889;SDS011;43707;50.184;18.966;2024-01-15T02:42:55;0.10;;;0.10;;
57889;SDS011;43707;50.184;18.966;2024-01-15T02:45:21;0.10;;;0.10;;
57889;SDS011;43707;50.184;18.966;2024-01-15T02:47:47;0.20;;;0.20;;
57889;SDS011;43707;50.184;18.966;2024-01-15T02:50:12;0.10;;;0.10;;
57889;SDS011;43707;50.184;18.966;2024-01-15T02:52:38;0.20;;;0.10;;
57889;SDS011;43707;50.184;18.966;2024-01-15T02:55:04;0.30;;;0.10;;
57889;SDS011;43707;50.184;18.966;2024-01-15T02:57:30;0.10;;;0.10;;
57889;SDS011;43707;50.184;18.966;2024-01-15T02:59:55;0.10;;;0.10;;
57889;SDS011;43707;50.184;18.966;2024-01-15T03:02:21;1.30;;;0.20;;
57889;SDS011;43707;50.184;18.966;2024-01-15T03:04:46;0.20;;;0.20;;
57889;SDS011;43707;50.184;18.966;2024-01-15T03:07:12;0.10;;;0.10;;
57889;SDS011;43707;50.184;18.966;2024-01-15T03:09:37;0.10;;;0.10;;
57889;SDS011;43707;50.184;18.966;2024-01-15T03:12:03;0.10;;;0.10;;
57889;SDS011;43707;50.184;18.966;2024-01-15T03:14:29;0.20;;;0.20;;
57889;SDS011;43707;50.184;18.966;2024-01-15T03:16:56;0.20;;;0.20;;
57889;SDS011;43707;50.184;18.966;2024-01-15T03:19:21;0.10;;;0.10;;
57889;SDS011;43707;50.184;18.966;2024-01-15T03:21:47;0.20;;;0.10;;
57889;SDS011;43707;50.184;18.966;2024-01-15T03:24:12;0.20;;;0.20;;
57889;SDS011;43707;50.184;18.966;2024-01-15T03:26:38;2.70;;;0.20;;
57889;SDS011;43707;50.184;18.966;2024-01-15T03:29:03;0.40;;;0.10;;
57889;SDS011;43707;50.184;18.966;2024-01-15T03:31:29;0.40;;;0.20;;
57889;SDS011;43707;50.184;18.966;2024-01-15T03:33:55;0.10;;;0.10;;
57889;SDS011;43707;50.184;18.966;2024-01-15T03:36:20;0.10;;;0.10;;
57889;SDS011;43707;50.184;18.966;2024-01-15T03:38:45;0.10;;;0.10;;
57889;SDS011;43707;50.184;18.966;2024-01-15T03:41:11;0.60;;;0.20;;
57889;SDS011;43707;50.184;18.966;2024-01-15T03:43:37;0.10;;;0.10;;
57889;SDS011;43707;50.184;18.966;2024-01-15T03:46:03;0.10;;;0.10;;
57889;SDS011;43707;50.184;18.966;2024-01-15T03:48:29;0.10;;;0.10;;
57889;SDS011;43707;50.184;18.966;2024-01-15T03:50:55;0.20;;;0.20;;
57889;SDS011;43707;50.184;18.966;2024-01-15T03:53:21;0.40;;;0.30;;
57889;SDS011;43707;50.184;18.966;2024-01-15T03:55:46;0.20;;;0.10;;
57889;SDS011;43707;50.184;18.966;2024-01-15T03:58:12;0.20;;;0.20;;
57889;SDS011;43707;50.184;18.966;2024-01-15T04:00:40;0.10;;;0.10;;
57889;SDS011;43707;50.184;18.966;2024-01-15T04:03:05;0.30;;;0.20;;
57889;SDS011;43707;50.184;18.966;2024-01-15T04:05:31;1.70;;;0.20;;
57889;SDS011;43707;50.184;18.966;2024-01-15T04:07:56;0.50;;;0.10;;
57889;SDS011;43707;50.184;18.966;2024-01-15T04:10:22;0.30;;;0.10;;
57889;SDS011;43707;50.184;18.966;2024-01-15T04:12:47;0.20;;;0.20;;
57889;SDS011;43707;50.184;18.966;2024-01-15T04:15:13;0.80;;;0.20;;
57889;SDS011;43707;50.184;18.966;2024-01-15T04:17:38;0.10;;;0.10;;
57889;SDS011;43707;50.184;18.966;2024-01-15T04:20:04;0.40;;;0.20;;
57889;SDS011;43707;50.184;18.966;2024-01-15T04:22:30;0.10;;;0.10;;
57889;SDS011;43707;50.184;18.966;2024-01-15T04:24:55;0.20;;;0.20;;
57889;SDS011;43707;50.184;18.966;2024-01-15T04:27:21;0.20;;;0.20;;
57889;SDS011;43707;50.184;18.966;2024-01-15T04:29:46;0.40;;;0.20;;
57889;SDS011;43707;50.184;18.966;2024-01-15T04:32:12;0.20;;;0.20;;
57889;SDS011;43707;50.184;18.966;2024-01-15T04:34:37;0.20;;;0.20;;
57889;SDS011;43707;50.184;18.966;2024-01-15T04:37:03;0.30;;;0.20;;
57889;SDS011;43707;50.184;18.966;2024-01-15T04:39:29;0.20;;;0.20;;
57889;SDS011;43707;50.184;18.966;2024-01-15T04:41:54;0.40;;;0.30;;
57889;SDS011;43707;50.184;18.966;2024-01-15T04:44:20;0.20;;;0.20;;
57889;SDS011;43707;50.184;18.966;2024-01-15T04:46:45;0.20;;;0.20;;
57889;SDS011;43707;50.184;18.966;2024-01-15T04:49:11;0.10;;;0.10;;
57889;SDS011;43707;50.184;18.966;2024-01-15T04:51:36;1.10;;;0.40;;
57889;SDS011;43707;50.184;18.966;2024-01-15T04:54:03;0.20;;;0.20;;
57889;SDS011;43707;50.184;18.966;2024-01-15T04:56:29;0.20;;;0.20;;
57889;SDS011;43707;50.184;18.966;2024-01-15T04:58:54;0.30;;;0.10;;
57889;SDS011;43707;50.184;18.966;2024-01-15T05:01:19;0.10;;;0.10;;
57889;SDS011;43707;50.184;18.966;2024-01-15T05:03:45;0.20;;;0.20;;
57889;SDS011;43707;50.184;18.966;2024-01-15T05:06:10;0.20;;;0.20;;
57889;SDS011;43707;50.184;18.966;2024-01-15T05:08:36;0.20;;;0.20;;
57889;SDS011;43707;50.184;18.966;2024-01-15T05:11:01;0.20;;;0.20;;
57889;SDS011;43707;50.184;18.966;2024-01-15T05:13:27;0.20;;;0.20;;
57889;SDS011;43707;50.184;18.966;2024-01-15T05:15:53;0.40;;;0.20;;
57889;SDS011;43707;50.184;18.966;2024-01-15T05:18:18;0.20;;;0.20;;
57889;SDS011;43707;50.184;18.966;2024-01-15T05:20:44;0.20;;;0.20;;
57889;SDS011;43707;50.184;18.966;2024-01-15T05:23:09;0.20;;;0.10;;
57889;SDS011;43707;50.184;18.966;2024-01-15T05:25:35;0.10;;;0.10;;
57889;SDS011;43707;50.184;18.966;2024-01-15T05:28:00;0.30;;;0.30;;
57889;SDS011;43707;50.184;18.966;2024-01-15T05:30:26;0.20;;;0.20;;
57889;SDS011;43707;50.184;18.966;2024-01-15T05:32:52;0.20;;;0.10;;
57889;SDS011;43707;50.184;18.966;2024-01-15T05:35:17;0.40;;;0.20;;
57889;SDS011;43707;50.184;18.966;2024-01-15T05:37:43;1.70;;;0.20;;
57889;SDS011;43707;50.184;18.966;2024-01-15T05:40:13;0.50;;;0.20;;
57889;SDS011;43707;50.184;18.966;2024-01-15T05:42:39;3.40;;;0.40;;
57889;SDS011;43707;50.184;18.966;2024-01-15T05:45:05;0.20;;;0.20;;
57889;SDS011;43707;50.184;18.966;2024-01-15T05:47:31;0.30;;;0.20;;
57889;SDS011;43707;50.184;18.966;2024-01-15T05:49:57;0.40;;;0.30;;
57889;SDS011;43707;50.184;18.966;2024-01-15T05:52:23;1.00;;;0.30;;
57889;SDS011;43707;50.184;18.966;2024-01-15T05:54:49;0.20;;;0.20;;
57889;SDS011;43707;50.184;18.966;2024-01-15T05:57:15;0.20;;;0.20;;
57889;SDS011;43707;50.184;18.966;2024-01-15T05:59:40;0.30;;;0.30;;
57889;SDS011;43707;50.184;18.966;2024-01-15T06:02:05;0.30;;;0.20;;
57889;SDS011;43707;50.184;18.966;2024-01-15T06:04:31;0.20;;;0.20;;
57889;SDS011;43707;50.184;18.966;2024-01-15T06:06:56;0.10;;;0.10;;
57889;SDS011;43707;50.184;18.966;2024-01-15T06:09:22;0.30;;;0.30;;
57889;SDS011;43707;50.184;18.966;2024-01-15T06:11:47;0.20;;;0.20;;
57889;SDS011;43707;50.184;18.966;2024-01-15T06:14:13;0.20;;;0.20;;
57889;SDS011;43707;50.184;18.966;2024-01-15T06:16:38;0.40;;;0.30;;
57889;SDS011;43707;50.184;18.966;2024-01-15T06:19:04;0.20;;;0.20;;
57889;SDS011;43707;50.184;18.966;2024-01-15T06:21:29;0.20;;;0.20;;
57889;SDS011;43707;50.184;18.966;2024-01-15T06:23:54;0.30;;;0.30;;
57889;SDS011;43707;50.184;18.966;2024-01-15T06:26:21;0.30;;;0.30;;
57889;SDS011;43707;50.184;18.966;2024-01-15T06:28:47;0.50;;;0.20;;
57889;SDS011;43707;50.184;18.966;2024-01-15T06:31:13;0.50;;;0.30;;
57889;SDS011;43707;50.184;18.966;2024-01-15T06:33:38;0.30;;;0.30;;
57889;SDS011;43707;50.184;18.966;2024-01-15T06:36:04;0.40;;;0.40;;
57889;SDS011;43707;50.184;18.966;2024-01-15T06:38:30;1.30;;;0.20;;
57889;SDS011;43707;50.184;18.966;2024-01-15T06:40:56;0.40;;;0.20;;
57889;SDS011;43707;50.184;18.966;2024-01-15T06:43:21;1.10;;;0.30;;
57889;SDS011;43707;50.184;18.966;2024-01-15T06:45:47;0.30;;;0.20;;
57889;SDS011;43707;50.184;18.966;2024-01-15T06:48:12;0.40;;;0.20;;
57889;SDS011;43707;50.184;18.966;2024-01-15T06:50:42;0.40;;;0.30;;
57889;SDS011;43707;50.184;18.966;2024-01-15T06:53:08;0.60;;;0.60;;
57889;SDS011;43707;50.184;18.966;2024-01-15T06:55:33;0.50;;;0.30;;
57889;SDS011;43707;50.184;18.966;2024-01-15T06:57:59;1.00;;;0.40;;
57889;SDS011;43707;50.184;18.966;2024-01-15T07:00:25;3.30;;;0.30;;
57889;SDS011;43707;50.184;18.966;2024-01-15T07:02:50;0.50;;;0.20;;
57889;SDS011;43707;50.184;18.966;2024-01-15T07:05:17;9.20;;;0.90;;
57889;SDS011;43707;50.184;18.966;2024-01-15T07:07:42;7.40;;;0.50;;
57889;SDS011;43707;50.184;18.966;2024-01-15T07:10:08;3.20;;;0.50;;
57889;SDS011;43707;50.184;18.966;2024-01-15T07:12:33;2.40;;;0.30;;
57889;SDS011;43707;50.184;18.966;2024-01-15T07:14:59;2.80;;;0.40;;
57889;SDS011;43707;50.184;18.966;2024-01-15T07:17:25;1.30;;;0.40;;
57889;SDS011;43707;50.184;18.966;2024-01-15T07:19:50;0.40;;;0.30;;
57889;SDS011;43707;50.184;18.966;2024-01-15T07:22:16;0.40;;;0.30;;
57889;SDS011;43707;50.184;18.966;2024-01-15T07:24:42;2.00;;;0.40;;
57889;SDS011;43707;50.184;18.966;2024-01-15T07:27:08;0.60;;;0.20;;
57889;SDS011;43707;50.184;18.966;2024-01-15T07:29:34;0.30;;;0.30;;
57889;SDS011;43707;50.184;18.966;2024-01-15T07:32:02;0.40;;;0.30;;
57889;SDS011;43707;50.184;18.966;2024-01-15T07:34:29;0.80;;;0.50;;
57889;SDS011;43707;50.184;18.966;2024-01-15T07:36:54;0.50;;;0.30;;
57889;SDS011;43707;50.184;18.966;2024-01-15T07:39:20;0.40;;;0.30;;
57889;SDS011;43707;50.184;18.966;2024-01-15T07:41:47;0.80;;;0.40;;
57889;SDS011;43707;50.184;18.966;2024-01-15T07:44:13;1.90;;;0.40;;
57889;SDS011;43707;50.184;18.966;2024-01-15T07:46:38;0.50;;;0.30;;
57889;SDS011;43707;50.184;18.966;2024-01-15T07:49:05;0.30;;;0.30;;
57889;SDS011;43707;50.184;18.966;2024-01-15T07:51:30;0.70;;;0.40;;
57889;SDS011;43707;50.184;18.966;2024-01-15T07:53:56;0.20;;;0.20;;
57889;SDS011;43707;50.184;18.966;2024-01-15T07:56:21;0.30;;;0.30;;
57889;SDS011;43707;50.184;18.966;2024-01-15T07:58:47;1.40;;;0.70;;
57889;SDS011;43707;50.184;18.966;2024-01-15T08:01:12;0.30;;;0.30;;
57889;SDS011;43707;50.184;18.966;2024-01-15T08:03:38;0.80;;;0.50;;
57889;SDS011;43707;50.184;18.966;2024-01-15T08:06:04;0.70;;;0.40;;
57889;SDS011;43707;50.184;18.966;2024-01-15T08:08:30;0.50;;;0.40;;
57889;SDS011;43707;50.184;18.966;2024-01-15T08:10:56;0.60;;;0.60;;
57889;SDS011;43707;50.184;18.966;2024-01-15T08:13:21;0.40;;;0.40;;
57889;SDS011;43707;50.184;18.966;2024-01-15T08:15:46;0.50;;;0.40;;
57889;SDS011;43707;50.184;18.966;2024-01-15T08:18:12;1.70;;;0.40;;
57889;SDS011;43707;50.184;18.966;2024-01-15T08:20:37;0.40;;;0.40;;
57889;SDS011;43707;50.184;18.966;2024-01-15T08:23:03;0.70;;;0.50;;
57889;SDS011;43707;50.184;18.966;2024-01-15T08:25:29;0.40;;;0.40;;
57889;SDS011;43707;50.184;18.966;2024-01-15T08:27:55;1.50;;;0.50;;
57889;SDS011;43707;50.184;18.966;2024-01-15T08:30:21;0.90;;;0.50;;
57889;SDS011;43707;50.184;18.966;2024-01-15T08:32:49;0.30;;;0.30;;
57889;SDS011;43707;50.184;18.966;2024-01-15T08:35:15;0.20;;;0.20;;
57889;SDS011;43707;50.184;18.966;2024-01-15T08:37:41;2.50;;;0.90;;
57889;SDS011;43707;50.184;18.966;2024-01-15T08:40:06;0.60;;;0.30;;
57889;SDS011;43707;50.184;18.966;2024-01-15T08:42:32;0.40;;;0.40;;
57889;SDS011;43707;50.184;18.966;2024-01-15T08:44:57;4.70;;;0.40;;
57889;SDS011;43707;50.184;18.966;2024-01-15T08:47:23;0.60;;;0.40;;
57889;SDS011;43707;50.184;18.966;2024-01-15T08:49:49;0.80;;;0.50;;
57889;SDS011;43707;50.184;18.966;2024-01-15T08:52:15;0.30;;;0.30;;
57889;SDS011;43707;50.184;18.966;2024-01-15T08:54:40;0.40;;;0.40;;
57889;SDS011;43707;50.184;18.966;2024-01-15T08:57:06;0.50;;;0.40;;
57889;SDS011;43707;50.184;18.966;2024-01-15T08:59:31;0.70;;;0.50;;
57889;SDS011;43707;50.184;18.966;2024-01-15T09:01:57;0.80;;;0.40;;
57889;SDS011;43707;50.184;18.966;2024-01-15T09:04:23;0.80;;;0.60;;
57889;SDS011;43707;50.184;18.966;2024-01-15T09:06:48;2.50;;;0.30;;
57889;SDS011;43707;50.184;18.966;2024-01-15T09:09:14;0.20;;;0.20;;
57889;SDS011;43707;50.184;18.966;2024-01-15T09:11:42;0.30;;;0.20;;
57889;SDS011;43707;50.184;18.966;2024-01-15T09:14:07;0.60;;;0.40;;
57889;SDS011;43707;50.184;18.966;2024-01-15T09:16:34;0.70;;;0.30;;
57889;SDS011;43707;50.184;18.966;2024-01-15T09:19:00;3.60;;;0.50;;
57889;SDS011;43707;50.184;18.966;2024-01-15T09:21:25;0.70;;;0.40;;
57889;SDS011;43707;50.184;18.966;2024-01-15T09:23:51;0.40;;;0.40;;
57889;SDS011;43707;50.184;18.966;2024-01-15T09:26:16;0.70;;;0.50;;
57889;SDS011;43707;50.184;18.966;2024-01-15T09:28:42;0.50;;;0.30;;
57889;SDS011;43707;50.184;18.966;2024-01-15T09:31:08;0.40;;;0.30;;
57889;SDS011;43707;50.184;18.966;2024-01-15T09:33:33;0.80;;;0.60;;
57889;SDS011;43707;50.184;18.966;2024-01-15T09:36:02;1.00;;;0.60;;
57889;SDS011;43707;50.184;18.966;2024-01-15T09:38:31;0.80;;;0.50;;
57889;SDS011;43707;50.184;18.966;2024-01-15T09:40:57;0.50;;;0.50;;
57889;SDS011;43707;50.184;18.966;2024-01-15T09:43:22;2.30;;;0.60;;
57889;SDS011;43707;50.184;18.966;2024-01-15T09:45:48;0.70;;;0.50;;
57889;SDS011;43707;50.184;18.966;2024-01-15T09:48:15;0.60;;;0.60;;
57889;SDS011;43707;50.184;18.966;2024-01-15T09:50:41;0.30;;;0.30;;
57889;SDS011;43707;50.184;18.966;2024-01-15T09:53:08;0.80;;;0.50;;
57889;SDS011;43707;50.184;18.966;2024-01-15T09:55:35;0.40;;;0.40;;
57889;SDS011;43707;50.184;18.966;2024-01-15T09:58:03;0.50;;;0.50;;
57889;SDS011;43707;50.184;18.966;2024-01-15T10:00:28;0.50;;;0.40;;
57889;SDS011;43707;50.184;18.966;2024-01-15T10:02:57;0.30;;;0.30;;
57889;SDS011;43707;50.184;18.966;2024-01-15T10:05:26;0.90;;;0.40;;
57889;SDS011;43707;50.184;18.966;2024-01-15T10:07:53;1.10;;;0.50;;
57889;SDS011;43707;50.184;18.966;2024-01-15T10:10:18;0.60;;;0.40;;
57889;SDS011;43707;50.184;18.966;2024-01-15T10:12:44;0.30;;;0.30;;
57889;SDS011;43707;50.184;18.966;2024-01-15T10:15:10;0.40;;;0.40;;
57889;SDS011;43707;50.184;18.966;2024-01-15T10:17:37;0.80;;;0.50;;
57889;SDS011;43707;50.184;18.966;2024-01-15T10:20:07;0.40;;;0.40;;
57889;SDS011;43707;50.184;18.966;2024-01-15T10:22:34;1.50;;;0.60;;
57889;SDS011;43707;50.184;18.966;2024-01-15T10:25:03;0.50;;;0.40;;
57889;SDS011;43707;50.184;18.966;2024-01-15T10:27:30;0.70;;;0.50;;
57889;SDS011;43707;50.184;18.966;2024-01-15T10:29:58;0.60;;;0.40;;
57889;SDS011;43707;50.184;18.966;2024-01-15T10:32:25;0.50;;;0.40;;
57889;SDS011;43707;50.184;18.966;2024-01-15T10:34:52;0.50;;;0.50;;
57889;SDS011;43707;50.184;18.966;2024-01-15T10:37:18;0.70;;;0.40;;
57889;SDS011;43707;50.184;18.966;2024-01-15T10:39:43;0.90;;;0.40;;
57889;SDS011;43707;50.184;18.966;2024-01-15T10:42:09;0.50;;;0.50;;
57889;SDS011;43707;50.184;18.966;2024-01-15T10:44:35;1.20;;;0.70;;
57889;SDS011;43707;50.184;18.966;2024-01-15T10:47:00;0.60;;;0.40;;
57889;SDS011;43707;50.184;18.966;2024-01-15T10:49:26;1.10;;;0.50;;
57889;SDS011;43707;50.184;18.966;2024-01-15T10:51:53;1.10;;;0.50;;
57889;SDS011;43707;50.184;18.966;2024-01-15T10:54:20;1.40;;;0.50;;
57889;SDS011;43707;50.184;18.966;2024-01-15T10:56:46;0.50;;;0.40;;
57889;SDS011;43707;50.184;18.966;2024-01-15T10:59:12;1.10;;;0.80;;
57889;SDS011;43707;50.184;18.966;2024-01-15T11:01:38;1.30;;;0.80;;
57889;SDS011;43707;50.184;18.966;2024-01-15T11:04:04;0.60;;;0.40;;
57889;SDS011;43707;50.184;18.966;2024-01-15T11:06:29;0.80;;;0.60;;
57889;SDS011;43707;50.184;18.966;2024-01-15T11:09:07;0.80;;;0.50;;
57889;SDS011;43707;50.184;18.966;2024-01-15T11:11:35;4.00;;;0.90;;
57889;SDS011;43707;50.184;18.966;2024-01-15T11:14:01;2.10;;;0.60;;
57889;SDS011;43707;50.184;18.966;2024-01-15T11:16:29;1.00;;;0.70;;
57889;SDS011;43707;50.184;18.966;2024-01-15T11:19:21;0.70;;;0.60;;
57889;SDS011;43707;50.184;18.966;2024-01-15T11:21:46;0.80;;;0.50;;
57889;SDS011;43707;50.184;18.966;2024-01-15T11:24:12;0.90;;;0.60;;
57889;SDS011;43707;50.184;18.966;2024-01-15T11:27:04;1.10;;;0.70;;
57889;SDS011;43707;50.184;18.966;2024-01-15T11:29:32;1.00;;;0.60;;
57889;SDS011;43707;50.184;18.966;2024-01-15T11:32:06;0.80;;;0.50;;
57889;SDS011;43707;50.184;18.966;2024-01-15T11:37:17;1.20;;;0.60;;
57889;SDS011;43707;50.184;18.966;2024-01-15T11:39:44;1.20;;;0.80;;
57889;SDS011;43707;50.184;18.966;2024-01-15T11:42:10;0.70;;;0.60;;
57889;SDS011;43707;50.184;18.966;2024-01-15T11:44:37;0.90;;;0.60;;
57889;SDS011;43707;50.184;18.966;2024-01-15T11:47:04;4.30;;;0.60;;
57889;SDS011;43707;50.184;18.966;2024-01-15T11:52:15;1.00;;;0.60;;
57889;SDS011;43707;50.184;18.966;2024-01-15T11:54:44;0.90;;;0.50;;
57889;SDS011;43707;50.184;18.966;2024-01-15T11:57:19;1.20;;;0.80;;
57889;SDS011;43707;50.184;18.966;2024-01-15T11:59:49;0.70;;;0.50;;
57889;SDS011;43707;50.184;18.966;2024-01-15T12:02:14;0.50;;;0.50;;
57889;SDS011;43707;50.184;18.966;2024-01-15T12:04:40;3.00;;;1.10;;
57889;SDS011;43707;50.184;18.966;2024-01-15T12:07:05;5.10;;;0.90;;
57889;SDS011;43707;50.184;18.966;2024-01-15T12:09:31;2.20;;;0.60;;
57889;SDS011;43707;50.184;18.966;2024-01-15T12:12:03;2.90;;;1.00;;
57889;SDS011;43707;50.184;18.966;2024-01-15T12:14:32;1.30;;;0.50;;
57889;SDS011;43707;50.184;18.966;2024-01-15T12:17:00;0.60;;;0.40;;
57889;SDS011;43707;50.184;18.966;2024-01-15T12:19:25;0.80;;;0.60;;
57889;SDS011;43707;50.184;18.966;2024-01-15T12:21:51;0.60;;;0.40;;
57889;SDS011;43707;50.184;18.966;2024-01-15T12:24:17;0.50;;;0.40;;
57889;SDS011;43707;50.184;18.966;2024-01-15T12:26:43;0.60;;;0.50;;
57889;SDS011;43707;50.184;18.966;2024-01-15T12:29:10;0.70;;;0.50;;
57889;SDS011;43707;50.184;18.966;2024-01-15T12:31:36;0.70;;;0.60;;
57889;SDS011;43707;50.184;18.966;2024-01-15T12:34:02;0.80;;;0.40;;
57889;SDS011;43707;50.184;18.966;2024-01-15T12:36:30;1.60;;;0.40;;
57889;SDS011;43707;50.184;18.966;2024-01-15T12:38:59;0.30;;;0.30;;
57889;SDS011;43707;50.184;18.966;2024-01-15T12:41:24;0.30;;;0.30;;
57889;SDS011;43707;50.184;18.966;2024-01-15T12:43:50;1.50;;;0.40;;
57889;SDS011;43707;50.184;18.966;2024-01-15T12:46:16;0.50;;;0.40;;
57889;SDS011;43707;50.184;18.966;2024-01-15T12:48:41;0.40;;;0.30;;
57889;SDS011;43707;50.184;18.966;2024-01-15T12:51:07;0.90;;;0.40;;
57889;SDS011;43707;50.184;18.966;2024-01-15T12:53:33;0.20;;;0.20;;
57889;SDS011;43707;50.184;18.966;2024-01-15T12:55:59;0.40;;;0.30;;
57889;SDS011;43707;50.184;18.966;2024-01-15T12:58:24;0.30;;;0.30;;
57889;SDS011;43707;50.184;18.966;2024-01-15T13:00:50;0.40;;;0.40;;
57889;SDS011;43707;50.184;18.966;2024-01-15T13:03:15;1.60;;;0.40;;
57889;SDS011;43707;50.184;18.966;2024-01-15T13:05:41;0.40;;;0.40;;
57889;SDS011;43707;50.184;18.966;2024-01-15T13:08:06;0.40;;;0.40;;
57889;SDS011;43707;50.184;18.966;2024-01-15T13:10:32;0.50;;;0.40;;
57889;SDS011;43707;50.184;18.966;2024-01-15T13:12:58;0.50;;;0.50;;
57889;SDS011;43707;50.184;18.966;2024-01-15T13:15:23;0.70;;;0.50;;
57889;SDS011;43707;50.184;18.966;2024-01-15T13:17:49;0.30;;;0.30;;
57889;SDS011;43707;50.184;18.966;2024-01-15T13:20:14;0.60;;;0.50;;
57889;SDS011;43707;50.184;18.966;2024-01-15T13:22:40;0.50;;;0.50;;
57889;SDS011;43707;50.184;18.966;2024-01-15T13:25:08;0.40;;;0.40;;
57889;SDS011;43707;50.184;18.966;2024-01-15T13:27:34;0.50;;;0.40;;
57889;SDS011;43707;50.184;18.966;2024-01-15T13:30:03;0.50;;;0.40;;
57889;SDS011;43707;50.184;18.966;2024-01-15T13:32:29;0.50;;;0.40;;
57889;SDS011;43707;50.184;18.966;2024-01-15T13:34:56;0.30;;;0.30;;
57889;SDS011;43707;50.184;18.966;2024-01-15T13:37:22;0.50;;;0.40;;
57889;SDS011;43707;50.184;18.966;2024-01-15T13:39:50;0.50;;;0.40;;
57889;SDS011;43707;50.184;18.966;2024-01-15T13:42:17;0.40;;;0.40;;
57889;SDS011;43707;50.184;18.966;2024-01-15T13:44:42;0.60;;;0.30;;
57889;SDS011;43707;50.184;18.966;2024-01-15T13:47:08;0.60;;;0.30;;
57889;SDS011;43707;50.184;18.966;2024-01-15T13:49:34;0.50;;;0.50;;
57889;SDS011;43707;50.184;18.966;2024-01-15T13:52:01;0.70;;;0.40;;
57889;SDS011;43707;50.184;18.966;2024-01-15T13:54:29;0.70;;;0.40;;
57889;SDS011;43707;50.184;18.966;2024-01-15T13:56:55;0.30;;;0.30;;
57889;SDS011;43707;50.184;18.966;2024-01-15T13:59:21;0.50;;;0.30;;
57889;SDS011;43707;50.184;18.966;2024-01-15T14:01:46;0.70;;;0.40;;
57889;SDS011;43707;50.184;18.966;2024-01-15T14:04:12;0.60;;;0.40;;
57889;SDS011;43707;50.184;18.966;2024-01-15T14:06:38;0.40;;;0.40;;
57889;SDS011;43707;50.184;18.966;2024-01-15T14:09:04;0.30;;;0.30;;
57889;SDS011;43707;50.184;18.966;2024-01-15T14:11:30;0.30;;;0.30;;
57889;SDS011;43707;50.184;18.966;2024-01-15T14:13:56;0.70;;;0.50;;
57889;SDS011;43707;50.184;18.966;2024-01-15T14:16:22;0.60;;;0.40;;
57889;SDS011;43707;50.184;18.966;2024-01-15T14:18:47;0.70;;;0.50;;
57889;SDS011;43707;50.184;18.966;2024-01-15T14:21:13;0.50;;;0.50;;
57889;SDS011;43707;50.184;18.966;2024-01-15T14:23:38;0.80;;;0.50;;
57889;SDS011;43707;50.184;18.966;2024-01-15T14:26:03;0.30;;;0.30;;
57889;SDS011;43707;50.184;18.966;2024-01-15T14:28:29;0.60;;;0.50;;
57889;SDS011;43707;50.184;18.966;2024-01-15T14:30:55;0.50;;;0.50;;
57889;SDS011;43707;50.184;18.966;2024-01-15T14:33:23;0.70;;;0.40;;